createdAt,value
2018-09-08T00:02:08.676Z,952.79
2018-09-08T00:04:34.991Z,952.83
2018-09-08T00:07:01.301Z,952.84
2018-09-08T00:09:27.619Z,952.85
2018-09-08T00:11:53.939Z,952.81
2018-09-08T00:14:20.258Z,952.80
2018-09-08T00:16:46.572Z,952.84
2018-09-08T00:19:12.894Z,952.86
2018-09-08T00:21:39.206Z,952.87
2018-09-08T00:24:05.517Z,952.87
2018-09-08T00:26:31.833Z,952.83
2018-09-08T00:28:58.155Z,952.80
2018-09-08T00:31:24.516Z,952.85
2018-09-08T00:33:50.780Z,952.88
2018-09-08T00:36:17.093Z,952.89
2018-09-08T00:38:43.411Z,952.84
2018-09-08T00:41:09.723Z,952.84
2018-09-08T00:43:36.038Z,952.86
2018-09-08T00:46:02.355Z,952.89
2018-09-08T00:48:28.678Z,952.83
2018-09-08T00:50:55.002Z,952.84
2018-09-08T00:53:21.320Z,952.85
2018-09-08T00:55:47.632Z,952.96
2018-09-08T00:58:13.946Z,952.93
2018-09-08T01:00:40.261Z,952.92
2018-09-08T01:03:06.578Z,952.99
2018-09-08T01:05:32.898Z,953.00
2018-09-08T01:07:59.209Z,952.97
2018-09-08T01:10:25.531Z,952.94
2018-09-08T01:12:51.839Z,953.05
2018-09-08T01:15:18.155Z,953.10
2018-09-08T01:17:44.467Z,953.12
2018-09-08T01:20:10.780Z,953.06
2018-09-08T01:22:37.098Z,953.08
2018-09-08T01:25:03.411Z,953.19
2018-09-08T01:27:29.720Z,953.14
2018-09-08T01:29:56.027Z,953.24
2018-09-08T01:32:22.341Z,953.23
2018-09-08T01:34:48.663Z,953.17
2018-09-08T01:37:14.974Z,953.11
2018-09-08T01:39:41.289Z,953.13
2018-09-08T01:42:07.612Z,953.06
2018-09-08T01:44:33.924Z,953.09
2018-09-08T01:47:00.235Z,953.14
2018-09-08T01:49:26.547Z,953.07
2018-09-08T01:51:52.873Z,953.06
2018-09-08T01:54:19.185Z,953.11
2018-09-08T01:56:45.501Z,953.09
2018-09-08T01:59:11.811Z,953.11
2018-09-08T02:01:38.123Z,953.15
2018-09-08T02:04:04.436Z,953.11
2018-09-08T02:06:30.753Z,953.13
2018-09-08T02:08:57.075Z,953.12
2018-09-08T02:11:23.385Z,953.12
2018-09-08T02:13:49.697Z,953.19
2018-09-08T02:16:16.058Z,953.15
2018-09-08T02:18:42.424Z,953.14
2018-09-08T02:21:08.732Z,953.16
2018-09-08T02:23:35.040Z,953.12
2018-09-08T02:26:01.362Z,953.14
2018-09-08T02:28:27.675Z,953.14
2018-09-08T02:30:53.999Z,953.10
2018-09-08T02:33:20.308Z,953.13
2018-09-08T02:35:46.645Z,953.12
2018-09-08T02:38:12.961Z,953.04
2018-09-08T02:40:39.284Z,953.11
2018-09-08T02:43:05.593Z,953.24
2018-09-08T02:45:31.906Z,953.22
2018-09-08T02:47:58.213Z,953.23
2018-09-08T02:50:24.564Z,953.28
2018-09-08T02:52:50.889Z,953.31
2018-09-08T02:55:17.246Z,953.26
2018-09-08T02:57:43.597Z,953.26
2018-09-08T03:00:09.913Z,953.22
2018-09-08T03:02:36.228Z,953.26
2018-09-08T03:05:02.543Z,953.26
2018-09-08T03:07:28.851Z,953.29
2018-09-08T03:09:55.184Z,953.33
2018-09-08T03:12:21.495Z,953.33
2018-09-08T03:14:47.831Z,953.38
2018-09-08T03:17:14.162Z,953.38
2018-09-08T03:19:40.476Z,953.37
2018-09-08T03:22:06.789Z,953.38
2018-09-08T03:24:33.109Z,953.39
2018-09-08T03:26:59.415Z,953.36
2018-09-08T03:29:25.733Z,953.42
2018-09-08T03:31:52.056Z,953.40
2018-09-08T03:34:18.368Z,953.41
2018-09-08T03:36:44.725Z,953.38
2018-09-08T03:39:11.037Z,953.37
2018-09-08T03:41:37.388Z,953.36
2018-09-08T03:44:03.707Z,953.32
2018-09-08T03:46:30.019Z,953.36
2018-09-08T03:48:56.339Z,953.33
2018-09-08T03:51:22.702Z,953.40
2018-09-08T03:53:49.018Z,953.38
2018-09-08T03:56:15.334Z,953.48
2018-09-08T03:58:41.653Z,953.50
2018-09-08T04:01:07.970Z,953.52
2018-09-08T04:03:34.325Z,953.52
2018-09-08T04:06:00.635Z,953.47
2018-09-08T04:08:26.943Z,953.57
2018-09-08T04:10:53.257Z,953.48
2018-09-08T04:13:19.564Z,953.55
2018-09-08T04:15:45.880Z,953.60
2018-09-08T04:18:12.244Z,953.62
2018-09-08T04:20:38.503Z,953.63
2018-09-08T04:23:04.817Z,953.61
2018-09-08T04:25:31.134Z,953.60
2018-09-08T04:27:57.443Z,953.64
2018-09-08T04:30:23.762Z,953.75
2018-09-08T04:32:50.083Z,953.76
2018-09-08T04:35:16.396Z,953.78
2018-09-08T04:37:42.744Z,953.78
2018-09-08T04:40:09.056Z,953.84
2018-09-08T04:42:35.389Z,953.76
2018-09-08T04:45:01.732Z,953.84
2018-09-08T04:47:28.044Z,953.87
2018-09-08T04:49:54.352Z,953.85
2018-09-08T04:52:20.664Z,953.90
2018-09-08T04:54:46.972Z,954.04
2018-09-08T04:57:13.293Z,954.01
2018-09-08T04:59:39.605Z,954.01
2018-09-08T05:02:05.916Z,954.01
2018-09-08T05:04:32.231Z,954.05
2018-09-08T05:06:58.550Z,954.07
2018-09-08T05:09:24.869Z,954.08
2018-09-08T05:11:51.207Z,954.05
2018-09-08T05:14:17.523Z,954.03
2018-09-08T05:16:43.827Z,954.08
2018-09-08T05:19:10.135Z,954.17
2018-09-08T05:21:36.444Z,954.09
2018-09-08T05:24:02.755Z,954.19
2018-09-08T05:26:29.070Z,954.19
2018-09-08T05:28:55.387Z,954.25
2018-09-08T05:31:21.704Z,954.21
2018-09-08T05:33:48.022Z,954.16
2018-09-08T05:36:14.341Z,954.17
2018-09-08T05:38:40.647Z,954.16
2018-09-08T05:41:06.960Z,954.17
2018-09-08T05:43:33.281Z,954.19
2018-09-08T05:45:59.599Z,954.24
2018-09-08T05:48:25.954Z,954.17
2018-09-08T05:50:52.265Z,954.29
2018-09-08T05:53:18.582Z,954.32
2018-09-08T05:55:44.894Z,954.34
2018-09-08T05:58:11.209Z,954.25
2018-09-08T06:00:37.524Z,954.33
2018-09-08T06:03:03.841Z,954.36
2018-09-08T06:05:30.161Z,954.37
2018-09-08T06:07:56.484Z,954.34
2018-09-08T06:10:22.904Z,954.34
2018-09-08T06:12:49.132Z,954.43
2018-09-08T06:15:15.455Z,954.39
2018-09-08T06:17:41.766Z,954.41
2018-09-08T06:20:08.089Z,954.35
2018-09-08T06:22:34.395Z,954.39
2018-09-08T06:25:00.716Z,954.35
2018-09-08T06:27:27.049Z,954.38
2018-09-08T06:29:53.341Z,954.33
2018-09-08T06:32:19.652Z,954.40
2018-09-08T06:34:45.965Z,954.42
2018-09-08T06:37:12.280Z,954.47
2018-09-08T06:39:38.593Z,954.54
2018-09-08T06:42:04.904Z,954.54
2018-09-08T06:44:31.226Z,954.50
2018-09-08T06:46:57.542Z,954.45
2018-09-08T06:49:23.850Z,954.46
2018-09-08T06:51:50.164Z,954.44
2018-09-08T06:54:16.481Z,954.49
2018-09-08T06:56:42.798Z,954.57
2018-09-08T06:59:09.115Z,954.51
2018-09-08T07:01:35.429Z,954.57
2018-09-08T07:04:01.739Z,954.53
2018-09-08T07:06:28.047Z,954.64
2018-09-08T07:08:54.359Z,954.59
2018-09-08T07:11:20.671Z,954.64
2018-09-08T07:13:46.979Z,954.58
2018-09-08T07:16:13.292Z,954.60
2018-09-08T07:18:39.611Z,954.60
2018-09-08T07:21:05.963Z,954.64
2018-09-08T07:23:32.271Z,954.62
2018-09-08T07:25:58.708Z,954.63
2018-09-08T07:28:25.045Z,954.66
2018-09-08T07:30:51.363Z,954.61
2018-09-08T07:33:17.674Z,954.62
2018-09-08T07:35:43.998Z,954.64
2018-09-08T07:38:10.316Z,954.58
2018-09-08T07:40:36.632Z,954.63
2018-09-08T07:43:02.956Z,954.63
2018-09-08T07:45:29.326Z,954.71
2018-09-08T07:47:55.646Z,954.63
2018-09-08T07:50:21.960Z,954.72
2018-09-08T07:52:48.284Z,954.71
2018-09-08T07:55:14.601Z,954.77
2018-09-08T07:57:40.912Z,954.78
2018-09-08T08:00:07.270Z,954.75
2018-09-08T08:02:33.579Z,954.74
2018-09-08T08:04:59.941Z,954.80
2018-09-08T08:07:26.250Z,954.73
2018-09-08T08:09:52.613Z,954.71
2018-09-08T08:12:18.928Z,954.71
2018-09-08T08:14:45.249Z,954.70
2018-09-08T08:17:11.571Z,954.67
2018-09-08T08:19:37.889Z,954.73
2018-09-08T08:22:04.201Z,954.70
2018-09-08T08:24:30.518Z,954.65
2018-09-08T08:26:56.855Z,954.68
2018-09-08T08:29:23.166Z,954.65
2018-09-08T08:31:49.528Z,954.64
2018-09-08T08:34:15.842Z,954.65
2018-09-08T08:36:42.160Z,954.66
2018-09-08T08:39:08.498Z,954.65
2018-09-08T08:41:34.821Z,954.71
2018-09-08T08:44:01.129Z,954.65
2018-09-08T08:46:27.452Z,954.66
2018-09-08T08:48:53.765Z,954.59
2018-09-08T08:51:20.080Z,954.58
2018-09-08T08:53:46.388Z,954.53
2018-09-08T08:56:12.707Z,954.51
2018-09-08T08:58:39.023Z,954.45
2018-09-08T09:01:05.328Z,954.48
2018-09-08T09:03:31.649Z,954.44
2018-09-08T09:05:57.971Z,954.42
2018-09-08T09:08:24.686Z,954.39
2018-09-08T09:10:50.596Z,954.36
2018-09-08T09:13:16.932Z,954.43
2018-09-08T09:15:43.229Z,954.35
2018-09-08T09:18:09.546Z,954.44
2018-09-08T09:20:35.860Z,954.40
2018-09-08T09:23:02.187Z,954.41
2018-09-08T09:25:28.514Z,954.41
2018-09-08T09:27:54.829Z,954.37
2018-09-08T09:30:21.186Z,954.34
2018-09-08T09:32:47.495Z,954.33
2018-09-08T09:35:13.820Z,954.33
2018-09-08T09:37:40.171Z,954.31
2018-09-08T09:40:06.498Z,954.35
2018-09-08T09:42:32.813Z,954.34
2018-09-08T09:44:59.133Z,954.31
2018-09-08T09:47:25.439Z,954.34
2018-09-08T09:49:51.753Z,954.29
2018-09-08T09:52:18.071Z,954.25
2018-09-08T09:54:44.389Z,954.29
2018-09-08T09:57:10.706Z,954.29
2018-09-08T09:59:37.018Z,954.20
2018-09-08T10:02:03.366Z,954.23
2018-09-08T10:04:29.691Z,954.32
2018-09-08T10:06:56.004Z,954.23
2018-09-08T10:09:22.353Z,954.27
2018-09-08T10:11:48.675Z,954.24
2018-09-08T10:14:14.995Z,954.22
2018-09-08T10:16:41.353Z,954.16
2018-09-08T10:19:07.664Z,954.14
2018-09-08T10:21:33.975Z,954.13
2018-09-08T10:24:05.161Z,954.08
2018-09-08T10:26:26.637Z,954.11
2018-09-08T10:28:52.923Z,954.07
2018-09-08T10:31:19.235Z,954.02
2018-09-08T10:33:45.560Z,953.95
2018-09-08T10:36:11.914Z,953.93
2018-09-08T10:38:38.226Z,953.98
2018-09-08T10:41:04.538Z,954.00
2018-09-08T10:43:30.866Z,953.90
2018-09-08T10:45:57.172Z,953.91
2018-09-08T10:48:23.490Z,953.92
2018-09-08T10:50:49.892Z,953.87
2018-09-08T10:53:16.180Z,953.82
2018-09-08T10:55:42.546Z,953.82
2018-09-08T10:58:08.888Z,953.71
2018-09-08T11:00:35.203Z,953.80
2018-09-08T11:03:01.580Z,953.78
2018-09-08T11:05:27.856Z,953.81
2018-09-08T11:07:54.209Z,953.80
2018-09-08T11:10:20.529Z,953.85
2018-09-08T11:12:46.841Z,953.80
2018-09-08T11:15:13.154Z,953.73
2018-09-08T11:17:39.494Z,953.73
2018-09-08T11:20:05.815Z,953.71
2018-09-08T11:22:32.135Z,953.73
2018-09-08T11:24:58.519Z,953.66
2018-09-08T11:27:24.839Z,953.73
2018-09-08T11:29:51.163Z,953.81
2018-09-08T11:32:17.614Z,953.78
2018-09-08T11:34:43.943Z,953.78
2018-09-08T11:37:10.252Z,953.78
2018-09-08T11:39:36.560Z,953.83
2018-09-08T11:42:02.880Z,953.84
2018-09-08T11:44:29.199Z,953.80
2018-09-08T11:46:55.533Z,953.96
2018-09-08T11:49:21.879Z,954.07
2018-09-08T11:51:48.164Z,954.11
2018-09-08T11:54:14.529Z,954.17
2018-09-08T11:56:40.883Z,954.13
2018-09-08T11:59:07.251Z,954.15
2018-09-08T12:01:33.580Z,954.15
2018-09-08T12:03:59.910Z,954.15
2018-09-08T12:06:26.272Z,954.14
2018-09-08T12:08:52.544Z,954.15
2018-09-08T12:11:18.859Z,954.10
2018-09-08T12:13:45.209Z,954.12
2018-09-08T12:16:11.491Z,954.14
2018-09-08T12:18:37.900Z,954.15
2018-09-08T12:21:04.222Z,954.18
2018-09-08T12:23:30.541Z,954.16
2018-09-08T12:25:56.867Z,954.16
2018-09-08T12:28:23.209Z,954.17
2018-09-08T12:30:49.589Z,954.12
2018-09-08T12:33:15.859Z,954.11
2018-09-08T12:35:42.169Z,954.13
2018-09-08T12:38:08.503Z,954.07
2018-09-08T12:40:34.830Z,954.11
2018-09-08T12:43:01.145Z,954.07
2018-09-08T12:45:27.465Z,954.16
2018-09-08T12:47:53.795Z,954.04
2018-09-08T12:50:20.105Z,954.00
2018-09-08T12:52:46.418Z,954.02
2018-09-08T12:55:12.742Z,953.92
2018-09-08T12:57:39.064Z,953.89
2018-09-08T13:00:05.375Z,953.88
2018-09-08T13:02:31.683Z,953.93
2018-09-08T13:04:58.017Z,953.97
2018-09-08T13:07:24.378Z,954.01
2018-09-08T13:09:50.718Z,953.93
2018-09-08T13:12:17.026Z,953.95
2018-09-08T13:14:43.361Z,953.98
2018-09-08T13:17:09.685Z,953.96
2018-09-08T13:19:36.014Z,953.99
2018-09-08T13:22:02.363Z,953.95
2018-09-08T13:24:28.686Z,953.99
2018-09-08T13:26:55.065Z,954.03
2018-09-08T13:29:21.381Z,953.98
2018-09-08T13:31:47.705Z,953.97
2018-09-08T13:34:14.040Z,954.00
2018-09-08T13:36:40.371Z,953.99
2018-09-08T13:39:06.741Z,953.96
2018-09-08T13:41:33.066Z,954.00
2018-09-08T13:43:59.394Z,953.97
2018-09-08T13:46:25.706Z,954.00
2018-09-08T13:48:52.016Z,954.01
2018-09-08T13:51:18.327Z,953.98
2018-09-08T13:53:44.641Z,953.93
2018-09-08T13:56:10.964Z,953.95
2018-09-08T13:58:37.272Z,953.96
2018-09-08T14:01:03.644Z,953.95
2018-09-08T14:03:30.023Z,953.96
2018-09-08T14:05:56.347Z,953.94
2018-09-08T14:08:22.687Z,953.90
2018-09-08T14:10:49.018Z,953.87
2018-09-08T14:13:15.343Z,953.89
2018-09-08T14:15:41.671Z,953.91
2018-09-08T14:18:07.987Z,953.91
2018-09-08T14:20:34.361Z,953.89
2018-09-08T14:23:00.717Z,953.97
2018-09-08T14:25:27.097Z,953.86
2018-09-08T14:27:53.407Z,953.90
2018-09-08T14:30:19.730Z,953.79
2018-09-08T14:32:46.041Z,953.79
2018-09-08T14:35:12.362Z,953.85
2018-09-08T14:37:38.690Z,953.80
2018-09-08T14:40:05.007Z,953.86
2018-09-08T14:42:31.317Z,953.84
2018-09-08T14:44:57.630Z,953.92
2018-09-08T14:47:23.975Z,953.82
2018-09-08T14:49:50.264Z,953.92
2018-09-08T14:52:16.571Z,954.01
2018-09-08T14:54:42.892Z,954.03
2018-09-08T14:57:09.272Z,954.03
2018-09-08T14:59:35.516Z,954.07
2018-09-08T15:02:01.824Z,954.12
2018-09-08T15:04:28.171Z,954.19
2018-09-08T15:06:54.457Z,954.25
2018-09-08T15:09:20.771Z,954.23
2018-09-08T15:11:47.088Z,954.28
2018-09-08T15:14:13.407Z,954.32
2018-09-08T15:16:39.730Z,954.33
2018-09-08T15:19:06.053Z,954.37
2018-09-08T15:21:32.374Z,954.35
2018-09-08T15:23:58.699Z,954.38
2018-09-08T15:26:25.018Z,954.39
2018-09-08T15:28:51.312Z,954.29
2018-09-08T15:31:17.635Z,954.32
2018-09-08T15:33:43.952Z,954.32
2018-09-08T15:36:10.278Z,954.26
2018-09-08T15:38:36.590Z,954.25
2018-09-08T15:41:02.912Z,954.31
2018-09-08T15:43:29.219Z,954.27
2018-09-08T15:45:55.557Z,954.19
2018-09-08T15:48:21.847Z,954.26
2018-09-08T15:50:48.176Z,954.30
2018-09-08T15:53:14.493Z,954.27
2018-09-08T15:55:40.847Z,954.34
2018-09-08T15:58:07.148Z,954.33
2018-09-08T16:00:33.432Z,954.31
2018-09-08T16:02:59.740Z,954.39
2018-09-08T16:05:26.063Z,954.38
2018-09-08T16:07:52.372Z,954.42
2018-09-08T16:10:18.697Z,954.44
2018-09-08T16:12:45.018Z,954.44
2018-09-08T16:15:11.350Z,954.49
2018-09-08T16:17:37.692Z,954.53
2018-09-08T16:20:04.024Z,954.50
2018-09-08T16:22:30.372Z,954.49
2018-09-08T16:24:56.691Z,954.47
2018-09-08T16:27:23.014Z,954.45
2018-09-08T16:29:49.333Z,954.56
2018-09-08T16:32:15.700Z,954.60
2018-09-08T16:34:42.048Z,954.61
2018-09-08T16:37:08.404Z,954.69
2018-09-08T16:39:34.793Z,954.69
2018-09-08T16:42:01.066Z,954.69
2018-09-08T16:44:27.384Z,954.73
2018-09-08T16:46:53.716Z,954.78
2018-09-08T16:49:20.042Z,954.80
2018-09-08T16:51:46.406Z,954.79
2018-09-08T16:54:12.719Z,954.79
2018-09-08T16:56:39.048Z,954.86
2018-09-08T16:59:05.377Z,954.91
2018-09-08T17:01:31.687Z,954.90
2018-09-08T17:03:58.013Z,955.07
2018-09-08T17:06:24.343Z,955.11
2018-09-08T17:08:50.659Z,955.19
2018-09-08T17:11:16.984Z,955.21
2018-09-08T17:13:43.297Z,955.21
2018-09-08T17:16:09.608Z,955.29
2018-09-08T17:18:35.965Z,955.35
2018-09-08T17:21:02.334Z,955.35
2018-09-08T17:23:28.657Z,955.39
2018-09-08T17:25:54.972Z,955.40
2018-09-08T17:28:21.314Z,955.37
2018-09-08T17:30:47.669Z,955.43
2018-09-08T17:33:13.950Z,955.45
2018-09-08T17:35:40.255Z,955.40
2018-09-08T17:38:06.567Z,955.51
2018-09-08T17:40:32.937Z,955.50
2018-09-08T17:42:59.297Z,955.52
2018-09-08T17:45:25.623Z,955.57
2018-09-08T17:47:51.953Z,955.62
2018-09-08T17:50:18.287Z,955.60
2018-09-08T17:52:44.615Z,955.65
2018-09-08T17:55:10.924Z,955.69
2018-09-08T17:57:37.346Z,955.67
2018-09-08T18:00:03.609Z,955.77
2018-09-08T18:02:29.939Z,955.80
2018-09-08T18:04:56.272Z,955.87
2018-09-08T18:07:25.665Z,955.91
2018-09-08T18:09:51.991Z,955.96
2018-09-08T18:12:18.327Z,955.97
2018-09-08T18:14:44.644Z,955.98
2018-09-08T18:17:10.965Z,956.00
2018-09-08T18:19:37.315Z,955.98
2018-09-08T18:22:03.635Z,955.98
2018-09-08T18:24:29.964Z,956.13
2018-09-08T18:26:56.295Z,956.12
2018-09-08T18:29:22.621Z,956.17
2018-09-08T18:31:48.956Z,956.12
2018-09-08T18:34:15.309Z,956.19
2018-09-08T18:36:41.649Z,956.18
2018-09-08T18:39:07.978Z,956.20
2018-09-08T18:41:34.396Z,956.18
2018-09-08T18:44:00.606Z,956.20
2018-09-08T18:46:26.937Z,956.19
2018-09-08T18:48:53.271Z,956.20
2018-09-08T18:51:19.577Z,956.24
2018-09-08T18:53:45.961Z,956.20
2018-09-08T18:56:12.251Z,956.17
2018-09-08T18:58:39.213Z,956.17
2018-09-08T19:01:05.538Z,956.18
2018-09-08T19:03:31.855Z,956.16
2018-09-08T19:05:58.184Z,956.08
2018-09-08T19:08:24.493Z,956.10
2018-09-08T19:10:50.824Z,956.12
2018-09-08T19:13:17.146Z,956.12
2018-09-08T19:15:43.474Z,956.10
2018-09-08T19:18:09.806Z,955.98
2018-09-08T19:20:36.161Z,956.11
2018-09-08T19:23:02.475Z,956.15
2018-09-08T19:25:28.820Z,956.13
2018-09-08T19:27:55.131Z,956.17
2018-09-08T19:30:21.491Z,956.16
2018-09-08T19:32:47.804Z,956.12
2018-09-08T19:35:14.130Z,956.23
2018-09-08T19:37:40.447Z,956.25
2018-09-08T19:40:06.760Z,956.29
2018-09-08T19:42:33.135Z,956.27
2018-09-08T19:44:59.441Z,956.33
2018-09-08T19:47:25.755Z,956.22
2018-09-08T19:49:52.104Z,956.23
2018-09-08T19:52:18.484Z,956.26
2018-09-08T19:54:44.789Z,956.26
2018-09-08T19:57:11.108Z,956.26
2018-09-08T19:59:37.420Z,956.21
2018-09-08T20:02:03.763Z,956.22
2018-09-08T20:04:30.087Z,956.17
2018-09-08T20:06:56.417Z,956.24
2018-09-08T20:09:22.777Z,956.27
2018-09-08T20:11:49.056Z,956.33
2018-09-08T20:14:15.388Z,956.37
2018-09-08T20:16:41.739Z,956.31
2018-09-08T20:19:08.119Z,956.39
2018-09-08T20:21:34.430Z,956.38
2018-09-08T20:24:00.758Z,956.42
2018-09-08T20:26:27.084Z,956.40
2018-09-08T20:28:53.448Z,956.49
2018-09-08T20:31:19.707Z,956.45
2018-09-08T20:33:46.017Z,956.53
2018-09-08T20:36:12.343Z,956.51
2018-09-08T20:38:38.677Z,956.45
2018-09-08T20:41:05.014Z,956.51
2018-09-08T20:43:31.332Z,956.56
2018-09-08T20:45:57.665Z,956.63
2018-09-08T20:48:23.976Z,956.62
2018-09-08T20:50:50.289Z,956.63
2018-09-08T20:53:16.618Z,956.66
2018-09-08T20:55:42.927Z,956.62
2018-09-08T20:58:09.240Z,956.71
2018-09-08T21:00:35.551Z,956.72
2018-09-08T21:03:01.880Z,956.63
2018-09-08T21:05:28.187Z,956.63
2018-09-08T21:07:54.519Z,956.68
2018-09-08T21:10:20.844Z,956.69
2018-09-08T21:12:47.157Z,956.69
2018-09-08T21:15:13.464Z,956.72
2018-09-08T21:17:39.789Z,956.80
2018-09-08T21:20:06.099Z,956.81
2018-09-08T21:22:32.408Z,956.83
2018-09-08T21:24:58.731Z,956.84
2018-09-08T21:27:25.037Z,956.81
2018-09-08T21:29:51.351Z,956.81
2018-09-08T21:32:17.685Z,956.81
2018-09-08T21:34:44.039Z,956.80
2018-09-08T21:37:10.381Z,956.79
2018-09-08T21:39:36.750Z,956.79
2018-09-08T21:42:03.065Z,956.80
2018-09-08T21:44:29.396Z,956.76
2018-09-08T21:46:55.718Z,956.84
2018-09-08T21:49:22.271Z,956.76
2018-09-08T21:51:48.595Z,956.88
2018-09-08T21:54:14.923Z,956.86
2018-09-08T21:56:41.287Z,956.90
2018-09-08T21:59:07.611Z,956.91
2018-09-08T22:01:33.929Z,956.91
2018-09-08T22:04:00.244Z,956.91
2018-09-08T22:06:26.551Z,956.91
2018-09-08T22:08:52.875Z,956.94
2018-09-08T22:11:19.192Z,956.96
2018-09-08T22:13:45.514Z,956.95
2018-09-08T22:16:11.825Z,956.88
2018-09-08T22:18:38.146Z,956.87
2018-09-08T22:21:04.461Z,956.93
2018-09-08T22:23:30.781Z,956.92
2018-09-08T22:25:57.093Z,956.87
2018-09-08T22:28:23.408Z,956.93
2018-09-08T22:30:49.721Z,956.98
2018-09-08T22:33:16.040Z,956.93
2018-09-08T22:35:42.355Z,956.97
2018-09-08T22:38:08.674Z,956.86
2018-09-08T22:40:34.986Z,956.87
2018-09-08T22:43:01.302Z,956.85
2018-09-08T22:45:27.642Z,956.84
2018-09-08T22:47:53.965Z,956.87
2018-09-08T22:50:20.281Z,956.83
2018-09-08T22:52:46.598Z,956.82
2018-09-08T22:55:12.919Z,956.88
2018-09-08T22:57:39.231Z,956.79
2018-09-08T23:00:05.578Z,956.82
2018-09-08T23:02:31.919Z,956.85
2018-09-08T23:04:58.274Z,956.84
2018-09-08T23:07:24.567Z,956.88
2018-09-08T23:09:50.877Z,956.87
2018-09-08T23:12:17.219Z,956.79
2018-09-08T23:14:43.504Z,956.78
2018-09-08T23:17:09.823Z,956.80
2018-09-08T23:19:36.135Z,956.79
2018-09-08T23:22:02.448Z,956.75
2018-09-08T23:24:28.764Z,956.76
2018-09-08T23:26:55.125Z,956.74
2018-09-08T23:29:21.442Z,956.71
2018-09-08T23:31:47.749Z,956.72
2018-09-08T23:34:14.060Z,956.74
2018-09-08T23:36:40.371Z,956.78
2018-09-08T23:39:06.684Z,956.79
2018-09-08T23:41:33.001Z,956.75
2018-09-08T23:43:59.319Z,956.76
2018-09-08T23:46:25.633Z,956.79
2018-09-08T23:48:51.949Z,956.78
2018-09-08T23:51:18.312Z,956.78
2018-09-08T23:53:44.626Z,956.74
2018-09-08T23:56:10.932Z,956.76
2018-09-08T23:58:37.254Z,956.81
